Time,TemperatureF,DewpointF,PressureIn,WindDirection,WindDirectionDegrees,WindSpeedMPH,WindSpeedGustMPH,Humidity,HourlyPrecipIn,Conditions,Clouds,dailyrainin,SoftwareType,DateUTC
2013-07-03 00:34:00,77.0,-99.9,30.16,SE,135,-999.0,10.0,-999,0.00,,,-99.99,,2013-07-03 04:34:00,
2013-07-03 00:43:00,77.0,-99.9,30.16,SE,135,-999.0,10.0,-999,0.00,,,-99.99,,2013-07-03 04:43:00,
2013-07-03 00:53:00,75.0,-99.9,30.17,South,185,2.0,12.0,-999,-99.99,,,-99.99,,2013-07-03 04:53:00,
2013-07-03 01:49:00,75.0,-99.9,30.17,South,185,2.0,12.0,-999,-99.99,,,-99.99,,2013-07-03 05:49:00,
2013-07-03 01:53:00,75.0,-99.9,30.17,West,268,5.0,5.0,-999,0.00,,,-99.99,,2013-07-03 05:53:00,
2013-07-03 02:40:00,75.0,-99.9,30.17,West,268,5.0,5.0,-999,0.00,,,-99.99,,2013-07-03 06:40:00,
2013-07-03 02:50:00,75.0,-99.9,30.17,West,268,5.0,5.0,-999,0.00,,,-99.99,,2013-07-03 06:50:00,
2013-07-03 02:53:00,74.0,-99.9,30.17,WSW,239,-999.0,7.0,-999,0.00,,,-99.99,,2013-07-03 06:53:00,
2013-07-03 03:40:00,74.0,-99.9,30.17,WSW,239,-999.0,7.0,-999,0.00,,,-99.99,,2013-07-03 07:40:00,
2013-07-03 03:48:00,74.0,-99.9,30.17,WSW,239,-999.0,7.0,-999,0.00,,,-99.99,,2013-07-03 07:48:00,
2013-07-03 03:53:00,74.0,-99.9,30.18,SSE,159,-999.0,-999.0,-999,0.00,,,-99.99,,2013-07-03 07:53:00,
2013-07-03 04:38:00,74.0,-99.9,30.18,SSE,159,-999.0,-999.0,-999,0.00,,,-99.99,,2013-07-03 08:38:00,
2013-07-03 04:48:00,74.0,-99.9,30.18,SSE,159,-999.0,-999.0,-999,0.00,,,-99.99,,2013-07-03 08:48:00,
2013-07-03 05:41:00,73.0,-99.9,30.19,SSE,167,-999.0,8.0,-999,0.00,,,-99.99,,2013-07-03 09:41:00,
2013-07-03 06:48:00,73.0,-99.9,30.20,SSE,147,-999.0,-999.0,-999,0.00,,,-99.99,,2013-07-03 10:48:00,
2013-07-03 06:53:00,73.0,-99.9,30.21,SSE,147,-999.0,-999.0,-999,0.00,,,-99.99,,2013-07-03 10:53:00,
2013-07-03 07:46:00,73.0,-99.9,30.21,SSE,147,-999.0,-999.0,-999,0.00,,,-99.99,,2013-07-03 11:46:00,
2013-07-03 08:38:00,75.0,-99.9,30.22,SSE,147,-999.0,-999.0,-999,0.00,,,-99.99,,2013-07-03 12:38:00,
2013-07-03 08:48:00,75.0,-99.9,30.22,SSE,147,-999.0,-999.0,-999,0.00,,,-99.99,,2013-07-03 12:48:00,
2013-07-03 08:53:00,76.0,-99.9,30.23,West,266,3.0,6.0,-999,0.00,,,-99.99,,2013-07-03 12:53:00,
2013-07-03 09:49:00,76.0,-99.9,30.23,West,266,3.0,6.0,-999,0.00,,,-99.99,,2013-07-03 13:49:00,
2013-07-03 09:53:00,78.0,-99.9,30.23,SSE,152,-999.0,4.0,-999,0.00,,,-99.99,,2013-07-03 13:53:00,
2013-07-03 10:53:00,79.0,-99.9,30.24,West,275,3.0,3.0,-999,0.00,,,-99.99,,2013-07-03 14:53:00,
2013-07-03 11:38:00,79.0,-99.9,30.24,West,275,3.0,3.0,-999,0.00,,,-99.99,,2013-07-03 15:38:00,
2013-07-03 11:49:00,79.0,-99.9,30.24,West,275,3.0,3.0,-999,0.00,,,-99.99,,2013-07-03 15:49:00,
2013-07-03 11:53:00,80.0,-99.9,30.22,ESE,103,-999.0,9.0,-999,0.00,,,-99.99,,2013-07-03 15:53:00,
2013-07-03 12:40:00,80.0,-99.9,30.22,ESE,103,-999.0,9.0,-999,0.00,,,-99.99,,2013-07-03 16:40:00,
2013-07-03 12:47:00,80.0,-99.9,30.22,ESE,103,-999.0,9.0,-999,0.00,,,-99.99,,2013-07-03 16:47:00,
2013-07-03 12:53:00,84.0,-99.9,30.22,SE,139,6.0,8.0,-999,0.00,,,-99.99,,2013-07-03 16:53:00,
2013-07-03 13:43:00,84.0,-99.9,30.22,SE,139,6.0,8.0,-999,0.00,,,-99.99,,2013-07-03 17:43:00,
2013-07-03 13:50:00,84.0,-99.9,30.22,SE,139,6.0,8.0,-999,0.00,,,-99.99,,2013-07-03 17:50:00,
2013-07-03 13:53:00,82.0,-99.9,30.20,SW,225,5.0,7.0,-999,0.00,,,-99.99,,2013-07-03 17:53:00,
2013-07-03 14:47:00,82.0,-99.9,30.20,SW,225,5.0,7.0,-999,0.00,,,-99.99,,2013-07-03 18:47:00,
2013-07-03 14:53:00,82.0,-99.9,30.19,SE,139,6.0,9.0,-999,0.01,,,-99.99,,2013-07-03 18:53:00,
2013-07-03 15:38:00,82.0,-99.9,30.19,SE,139,6.0,9.0,-999,0.01,,,-99.99,,2013-07-03 19:38:00,
2013-07-03 15:49:00,82.0,-99.9,30.19,SE,139,6.0,9.0,-999,0.01,,,-99.99,,2013-07-03 19:49:00,
2013-07-03 15:53:00,82.0,-99.9,30.18,SE,143,-999.0,4.0,-999,0.00,,,-99.99,,2013-07-03 19:53:00,
2013-07-03 16:47:00,82.0,-99.9,30.18,SE,143,-999.0,4.0,-999,0.00,,,-99.99,,2013-07-03 20:47:00,
2013-07-03 16:53:00,82.0,-99.9,30.17,SSE,166,-999.0,3.0,-999,0.00,,,-99.99,,2013-07-03 20:53:00,
2013-07-03 17:45:00,82.0,-99.9,30.17,SSE,166,-999.0,3.0,-999,0.00,,,-99.99,,2013-07-03 21:45:00,
2013-07-03 18:53:00,83.0,-99.9,30.16,SSW,208,4.0,-999.0,-999,0.00,,,-99.99,,2013-07-03 22:53:00,
2013-07-03 19:40:00,83.0,-99.9,30.16,SSW,208,4.0,-999.0,-999,0.00,,,-99.99,,2013-07-03 23:40:00,
2013-07-03 19:46:00,83.0,-99.9,30.16,SSW,208,4.0,-999.0,-999,0.00,,,-99.99,,2013-07-03 23:46:00,
2013-07-03 19:53:00,82.0,-99.9,30.17,SSE,157,-999.0,5.0,-999,0.00,,,-99.99,,2013-07-03 23:53:00,
2013-07-03 20:38:00,82.0,-99.9,30.17,SSE,157,-999.0,5.0,-999,0.00,,,-99.99,,2013-07-04 00:38:00,
2013-07-03 20:51:00,82.0,-99.9,30.17,SSE,157,-999.0,5.0,-999,0.00,,,-99.99,,2013-07-04 00:51:00,
2013-07-03 21:40:00,80.0,-99.9,30.18,South,173,-999.0,-999.0,-999,0.00,,,-99.99,,2013-07-04 01:40:00,
2013-07-03 22:42:00,79.0,-99.9,30.20,SSW,206,-999.0,-999.0,-999,0.00,,,-99.99,,2013-07-04 02:42:00,
2013-07-03 22:49:00,79.0,-99.9,30.20,SSW,206,-999.0,-999.0,-999,0.00,,,-99.99,,2013-07-04 02:49:00,
2013-07-03 23:36:00,77.0,-99.9,30.20,SSW,206,-999.0,-999.0,-999,0.00,,,-99.99,,2013-07-04 03:36:00,
2013-07-03 23:46:00,77.0,-99.9,30.20,SSW,206,-999.0,-999.0,-999,0.00,,,-99.99,,2013-07-04 03:46:00,